High Level, High Level Airport (CYOJ)

NameHigh Level Airport
CityHigh Level
CountryCanada
ICAOCYOJ
IATAYOJ
Altitude338 m
CoordinatesGoogle Map
Live Air TrafficLiveATC.net
METARCYOJ 171000Z AUTO 07003KT 030V100 9SM OVC007 03/03 A2934 RMK SLP953
2019-10-17 10:00:00 Wind: East-Northeast (70°) 1.54 m/s - Visibility: 14484.06 m - Temperature: 3 °C - Dew point: 3 °C - Humidity: 100% - Pressure: 993.57 hPa

Sorry, no flights used the airport in this database.